Time;durP1;ratioP1;P1;durP2;ratioP2;P2;SDS_P1;SDS_P2;PMS_P1;PMS_P2;Temp;Humidity;BMP_temperature;BMP_pressure;BME280_temperature;BME280_humidity;BME280_pressure;Samples;Min_cycle;Max_cycle;Signal;HPM_P1;HPM_P2
2021/12/29 00:01:22;;;;;;;19.77;7.90;;;7.30;99.90;;;;;;5121564;27;36805;-62
2021/12/29 00:03:49;;;;;;;12.77;7.00;;;7.30;99.90;;;;;;5122542;27;37468;-62
2021/12/29 00:06:17;;;;;;;16.13;8.05;;;7.30;99.90;;;;;;5122519;27;37106;-62
2021/12/29 00:08:44;;;;;;;17.85;7.50;;;7.30;99.90;;;;;;5122099;27;38621;-62
2021/12/29 00:11:13;;;;;;;13.23;7.22;;;7.40;99.90;;;;;;5121916;27;37584;-62
2021/12/29 00:13:40;;;;;;;12.85;7.30;;;7.40;99.90;;;;;;5121842;27;37515;-62
2021/12/29 00:16:07;;;;;;;13.30;6.18;;;7.40;99.90;;;;;;5121703;27;37420;-61
2021/12/29 00:18:36;;;;;;;11.15;6.90;;;7.40;99.90;;;;;;5121782;27;37292;-62
2021/12/29 00:21:06;;;;;;;13.23;7.90;;;7.40;99.90;;;;;;5122198;27;37186;-62
2021/12/29 00:23:34;;;;;;;11.13;6.45;;;7.40;99.90;;;;;;5121583;27;36674;-62
2021/12/29 00:26:01;;;;;;;11.82;6.68;;;7.40;99.90;;;;;;5122057;27;36099;-62
2021/12/29 00:28:30;;;;;;;11.63;6.65;;;7.40;99.90;;;;;;5121779;27;39403;-62
2021/12/29 00:30:57;;;;;;;21.48;7.10;;;7.40;99.90;;;;;;5122519;27;36646;-62
2021/12/29 00:33:24;;;;;;;12.73;7.18;;;7.40;99.90;;;;;;5122683;27;37143;-62
2021/12/29 00:35:52;;;;;;;10.98;6.38;;;7.40;99.90;;;;;;5121664;27;36470;-62
2021/12/29 00:38:19;;;;;;;19.63;8.45;;;7.40;99.90;;;;;;5122097;27;40174;-61
2021/12/29 00:40:47;;;;;;;12.82;6.78;;;7.50;99.90;;;;;;5122113;27;39346;-62
2021/12/29 00:43:15;;;;;;;18.85;7.53;;;7.50;99.90;;;;;;5120503;27;35240;-62
2021/12/29 00:45:45;;;;;;;19.90;7.68;;;7.50;99.90;;;;;;5122172;27;37875;-62
2021/12/29 00:48:13;;;;;;;17.45;9.07;;;7.50;99.90;;;;;;5122132;27;37845;-62
2021/12/29 00:50:41;;;;;;;19.98;8.50;;;7.50;99.90;;;;;;5121020;27;37282;-62
2021/12/29 00:53:09;;;;;;;16.58;8.98;;;7.50;99.90;;;;;;5121362;27;37348;-62
2021/12/29 00:55:37;;;;;;;28.42;9.50;;;7.50;99.90;;;;;;5124714;27;39102;-62
2021/12/29 00:58:07;;;;;;;20.45;9.45;;;7.50;99.90;;;;;;5125207;27;37009;-61
2021/12/29 01:00:37;;;;;;;18.42;8.68;;;7.50;99.90;;;;;;5125156;27;38122;-62
2021/12/29 01:03:06;;;;;;;26.02;10.00;;;7.50;99.90;;;;;;5124599;27;38231;-62
2021/12/29 01:05:33;;;;;;;23.45;10.18;;;7.50;99.90;;;;;;5124207;27;37278;-61
2021/12/29 01:08:00;;;;;;;22.48;9.88;;;7.50;99.90;;;;;;5124409;27;38869;-62
2021/12/29 01:10:28;;;;;;;24.02;11.32;;;7.50;99.90;;;;;;5124171;27;36142;-62
2021/12/29 01:12:58;;;;;;;30.65;12.40;;;7.60;99.90;;;;;;5125035;27;38909;-62
2021/12/29 01:15:32;;;;;;;22.23;9.95;;;7.60;99.90;;;;;;5124372;27;37535;-62
2021/12/29 01:18:01;;;;;;;27.55;11.63;;;7.60;99.90;;;;;;5124772;27;38469;-62
2021/12/29 01:20:30;;;;;;;22.10;11.25;;;7.60;99.90;;;;;;5125435;27;38322;-62
2021/12/29 01:22:59;;;;;;;31.08;12.63;;;7.60;99.90;;;;;;5125067;27;39151;-62
2021/12/29 01:25:28;;;;;;;33.90;12.43;;;7.70;99.90;;;;;;5122643;27;38065;-62
2021/12/29 01:27:56;;;;;;;30.45;12.38;;;7.60;99.90;;;;;;5124721;27;36374;-62
2021/12/29 01:30:23;;;;;;;25.08;12.50;;;7.70;99.90;;;;;;5123398;27;40896;-62
2021/12/29 01:32:51;;;;;;;28.52;13.88;;;7.70;99.90;;;;;;5124868;27;37654;-62
2021/12/29 01:35:18;;;;;;;26.33;13.13;;;7.70;99.90;;;;;;5124731;27;37195;-62
2021/12/29 01:37:47;;;;;;;53.50;14.45;;;7.70;99.90;;;;;;5124488;27;39030;-62
2021/12/29 01:40:18;;;;;;;31.35;14.25;;;7.70;99.90;;;;;;5122734;27;38432;-65
2021/12/29 01:42:45;;;;;;;39.45;13.73;;;7.70;99.90;;;;;;5124132;27;37604;-65
2021/12/29 01:45:13;;;;;;;24.58;11.45;;;7.60;99.90;;;;;;5123316;27;37550;-65
2021/12/29 01:47:41;;;;;;;36.97;13.10;;;7.70;99.90;;;;;;5123604;27;36401;-65
2021/12/29 01:50:11;;;;;;;30.23;13.10;;;7.70;99.90;;;;;;5123704;27;37548;-65
2021/12/29 01:52:40;;;;;;;51.25;15.70;;;7.70;99.90;;;;;;5124579;27;36359;-65
2021/12/29 01:55:12;;;;;;;29.52;12.55;;;7.70;99.90;;;;;;5123891;27;37445;-65
2021/12/29 01:57:42;;;;;;;26.98;13.32;;;7.70;99.90;;;;;;5123915;27;37647;-65
2021/12/29 02:00:12;;;;;;;32.35;14.02;;;7.70;99.90;;;;;;5124159;27;36243;-65
2021/12/29 02:02:40;;;;;;;33.78;13.52;;;7.70;99.90;;;;;;5124210;27;39118;-65
2021/12/29 02:05:08;;;;;;;29.20;14.43;;;7.70;99.90;;;;;;5122134;27;38765;-65
2021/12/29 02:07:35;;;;;;;24.90;13.02;;;7.70;99.90;;;;;;5123999;27;37812;-65
2021/12/29 02:10:04;;;;;;;24.85;12.13;;;7.70;99.90;;;;;;5123195;27;37540;-65
2021/12/29 02:12:33;;;;;;;24.38;12.05;;;7.80;99.90;;;;;;5124016;27;36558;-65
2021/12/29 02:15:00;;;;;;;25.15;12.07;;;7.80;99.90;;;;;;5123785;27;36162;-65
2021/12/29 02:17:28;;;;;;;26.17;12.63;;;7.80;99.90;;;;;;5123083;27;37860;-65
2021/12/29 02:19:59;;;;;;;22.10;10.98;;;7.80;99.90;;;;;;5123859;27;37534;-65
2021/12/29 02:22:36;;;;;;;18.30;9.52;;;7.80;99.90;;;;;;5123470;27;36798;-65
2021/12/29 02:25:20;;;;;;;26.90;10.10;;;7.80;99.90;;;;;;5123264;27;37156;-65
2021/12/29 02:27:49;;;;;;;18.90;9.45;;;7.80;99.90;;;;;;5123341;27;37928;-65
2021/12/29 02:30:19;;;;;;;29.02;10.13;;;7.80;99.90;;;;;;5122916;27;38662;-65
2021/12/29 02:32:49;;;;;;;26.02;9.95;;;7.90;99.90;;;;;;5123069;27;38838;-62
2021/12/29 02:35:19;;;;;;;24.33;9.90;;;7.90;99.90;;;;;;5123017;27;37423;-65
2021/12/29 02:37:46;;;;;;;21.88;9.45;;;7.90;99.90;;;;;;5122283;27;37659;-66
2021/12/29 02:40:14;;;;;;;31.23;9.60;;;7.90;99.90;;;;;;5123242;27;37071;-65
2021/12/29 02:42:43;;;;;;;38.58;9.65;;;7.90;99.90;;;;;;5123687;27;36305;-62
2021/12/29 02:45:13;;;;;;;21.50;8.43;;;7.90;99.90;;;;;;5123050;27;39475;-63
2021/12/29 02:47:41;;;;;;;24.27;8.57;;;7.90;99.90;;;;;;5123248;27;39903;-66
2021/12/29 02:50:09;;;;;;;29.13;9.68;;;7.90;99.90;;;;;;5122273;27;37488;-66
2021/12/29 02:52:38;;;;;;;20.88;8.50;;;8.30;99.90;;;;;;5123464;27;36746;-61
2021/12/29 02:55:06;;;;;;;19.85;8.32;;;7.90;99.90;;;;;;5122257;27;36994;-62
2021/12/29 02:57:33;;;;;;;20.17;9.40;;;7.90;99.90;;;;;;5122529;27;38640;-66
2021/12/29 03:00:00;;;;;;;20.58;8.13;;;8.00;99.90;;;;;;5123223;27;37242;-62
2021/12/29 03:02:28;;;;;;;29.45;9.32;;;8.00;99.90;;;;;;5123408;27;36875;-62
2021/12/29 03:04:58;;;;;;;18.90;8.35;;;7.90;99.90;;;;;;5122545;27;37603;-62
2021/12/29 03:07:26;;;;;;;19.50;8.20;;;8.00;99.90;;;;;;5123699;27;36545;-62
2021/12/29 03:09:54;;;;;;;28.67;8.63;;;8.00;99.90;;;;;;5123749;27;37019;-62
2021/12/29 03:12:22;;;;;;;25.60;8.88;;;7.90;99.90;;;;;;5123126;27;36504;-62
2021/12/29 03:14:54;;;;;;;16.55;8.23;;;8.00;99.90;;;;;;5123103;27;37316;-62
2021/12/29 03:17:21;;;;;;;19.80;9.10;;;8.00;99.90;;;;;;5123221;27;37922;-62
2021/12/29 03:19:49;;;;;;;22.85;9.63;;;8.00;99.90;;;;;;5121695;27;37366;-62
2021/12/29 03:22:16;;;;;;;22.55;9.10;;;8.00;99.90;;;;;;5121964;27;36619;-62
2021/12/29 03:24:43;;;;;;;20.88;9.40;;;8.00;99.90;;;;;;5121812;27;38161;-62
2021/12/29 03:27:12;;;;;;;23.92;9.70;;;8.00;99.90;;;;;;5121772;27;38580;-62
2021/12/29 03:29:39;;;;;;;19.55;10.57;;;8.00;99.90;;;;;;5122391;27;37558;-62
2021/12/29 03:32:09;;;;;;;22.85;9.63;;;8.00;99.90;;;;;;5123328;27;35228;-65
2021/12/29 03:34:37;;;;;;;24.65;10.90;;;8.00;99.90;;;;;;5121699;27;37800;-65
2021/12/29 03:37:05;;;;;;;28.02;11.65;;;8.00;99.90;;;;;;5121844;27;38572;-65
2021/12/29 03:39:38;;;;;;;28.20;11.75;;;8.00;99.90;;;;;;5121200;27;37456;-65
2021/12/29 03:42:07;;;;;;;23.08;11.10;;;8.00;99.90;;;;;;5121146;27;38123;-65
2021/12/29 03:44:36;;;;;;;22.42;10.70;;;8.00;99.90;;;;;;5120998;27;39301;-65
2021/12/29 03:47:03;;;;;;;23.40;11.10;;;8.10;99.90;;;;;;5122087;27;41573;-65
2021/12/29 03:49:31;;;;;;;27.92;11.00;;;8.00;99.90;;;;;;5120817;27;37536;-65
2021/12/29 03:51:59;;;;;;;21.70;11.73;;;8.10;99.90;;;;;;5121613;27;37509;-65
2021/12/29 03:54:26;;;;;;;22.50;11.80;;;8.10;99.90;;;;;;5122648;27;37428;-65
2021/12/29 03:56:53;;;;;;;29.48;12.32;;;8.10;99.90;;;;;;5121659;27;38668;-65
2021/12/29 03:59:22;;;;;;;20.27;10.70;;;8.10;99.90;;;;;;5122397;27;20140;-65
2021/12/29 04:01:52;;;;;;;27.10;12.10;;;8.10;99.90;;;;;;5121350;27;37924;-65
2021/12/29 04:04:20;;;;;;;26.63;11.93;;;8.10;99.90;;;;;;5122443;27;37412;-65
2021/12/29 04:06:47;;;;;;;30.15;12.30;;;8.10;99.90;;;;;;5122726;27;38408;-65
2021/12/29 04:09:15;;;;;;;25.15;12.52;;;8.10;99.90;;;;;;5122788;27;37487;-65
2021/12/29 04:11:42;;;;;;;20.83;11.02;;;8.10;99.90;;;;;;5122216;27;36237;-65
2021/12/29 04:14:10;;;;;;;25.42;11.60;;;8.10;99.90;;;;;;5121711;27;38347;-66
2021/12/29 04:16:40;;;;;;;26.85;12.57;;;8.10;99.90;;;;;;5121992;27;38222;-65
2021/12/29 04:19:17;;;;;;;22.08;12.85;;;8.10;99.90;;;;;;5121575;27;36174;-65
2021/12/29 04:21:48;;;;;;;19.88;12.20;;;8.10;99.90;;;;;;5123160;27;37081;-65
2021/12/29 04:24:15;;;;;;;21.70;12.07;;;8.20;99.90;;;;;;5122179;27;39086;-65
2021/12/29 04:26:43;;;;;;;25.38;12.70;;;8.20;99.90;;;;;;5122029;27;35525;-65
2021/12/29 04:29:13;;;;;;;19.88;12.02;;;8.20;99.90;;;;;;5120372;27;37666;-65
2021/12/29 04:31:40;;;;;;;19.23;12.88;;;8.20;99.90;;;;;;5122289;27;37627;-65
2021/12/29 04:34:09;;;;;;;18.17;12.57;;;8.20;99.90;;;;;;5122100;27;35283;-62
2021/12/29 04:36:36;;;;;;;26.05;13.70;;;8.20;99.90;;;;;;5121777;27;36373;-62
2021/12/29 04:39:06;;;;;;;23.52;12.43;;;8.20;99.90;;;;;;5121869;27;37671;-62
2021/12/29 04:41:34;;;;;;;20.65;11.95;;;8.50;99.90;;;;;;5121664;27;35484;-62
2021/12/29 04:44:01;;;;;;;21.00;11.23;;;8.20;99.90;;;;;;5121320;27;38253;-62
2021/12/29 04:46:37;;;;;;;27.77;11.80;;;8.20;99.90;;;;;;5121065;27;38457;-62
2021/12/29 04:49:05;;;;;;;21.48;11.60;;;8.20;99.90;;;;;;5121386;27;38040;-62
2021/12/29 04:51:36;;;;;;;24.95;12.00;;;8.20;99.90;;;;;;5121763;27;35566;-62
2021/12/29 04:54:06;;;;;;;24.80;11.85;;;8.20;99.90;;;;;;5121663;27;37930;-65
2021/12/29 04:56:34;;;;;;;18.52;10.77;;;8.20;99.90;;;;;;5121149;27;39041;-65
2021/12/29 04:59:02;;;;;;;25.13;11.63;;;8.20;99.90;;;;;;5121212;27;37324;-65
2021/12/29 05:01:29;;;;;;;26.40;11.32;;;8.20;99.90;;;;;;5121668;27;36015;-65
2021/12/29 05:03:57;;;;;;;23.75;12.25;;;8.20;99.90;;;;;;5121795;27;38157;-65
2021/12/29 05:09:10;;;;;;;35.33;13.38;;;8.20;99.90;;;;;;5122066;27;38319;-65
2021/12/29 05:11:38;;;;;;;23.17;11.75;;;8.20;99.90;;;;;;5120409;27;36941;-65
2021/12/29 05:14:05;;;;;;;26.67;12.80;;;8.20;99.90;;;;;;5120798;27;36203;-65
2021/12/29 05:16:32;;;;;;;27.50;12.77;;;8.20;99.90;;;;;;5120522;27;38064;-65
2021/12/29 05:19:00;;;;;;;21.48;12.50;;;8.20;99.90;;;;;;5121752;27;39412;-65
2021/12/29 05:21:27;;;;;;;21.95;12.07;;;8.20;99.90;;;;;;5121804;27;35305;-65
2021/12/29 05:23:55;;;;;;;28.77;12.93;;;8.20;99.90;;;;;;5121876;27;37741;-65
2021/12/29 05:26:24;;;;;;;20.23;11.30;;;8.20;99.90;;;;;;5121064;27;38304;-65
2021/12/29 05:28:51;;;;;;;26.75;11.65;;;8.20;99.90;;;;;;5121568;27;38771;-65
2021/12/29 05:31:19;;;;;;;22.77;12.27;;;8.20;99.90;;;;;;5120815;27;36643;-65
2021/12/29 05:33:46;;;;;;;29.13;13.80;;;8.20;99.90;;;;;;5119882;27;37728;-65
2021/12/29 05:36:13;;;;;;;38.40;13.02;;;8.20;99.90;;;;;;5119325;27;38449;-65
2021/12/29 05:38:41;;;;;;;22.02;12.75;;;8.20;99.90;;;;;;5120857;27;38403;-65
2021/12/29 05:41:08;;;;;;;24.90;11.88;;;8.20;99.90;;;;;;5122199;27;37265;-65
2021/12/29 05:43:37;;;;;;;26.58;12.32;;;8.20;99.90;;;;;;5124640;27;37735;-65
2021/12/29 05:46:04;;;;;;;27.85;11.75;;;8.20;99.90;;;;;;5124677;27;37565;-65
2021/12/29 05:48:33;;;;;;;21.73;12.32;;;8.30;99.90;;;;;;5124526;27;37238;-65
2021/12/29 05:51:01;;;;;;;18.23;10.70;;;8.30;99.90;;;;;;5124436;27;37590;-65
2021/12/29 05:53:28;;;;;;;21.85;12.23;;;8.20;99.90;;;;;;5123876;27;36172;-65
2021/12/29 05:55:56;;;;;;;25.77;12.57;;;8.20;99.90;;;;;;5124794;27;40321;-65
2021/12/29 05:58:23;;;;;;;20.67;12.00;;;8.20;99.90;;;;;;5124646;27;37507;-65
2021/12/29 06:00:52;;;;;;;26.45;12.00;;;8.30;99.90;;;;;;5123790;27;36922;-65
2021/12/29 06:03:20;;;;;;;18.25;11.63;;;8.30;99.90;;;;;;5125005;27;36260;-65
2021/12/29 06:05:47;;;;;;;21.27;11.95;;;8.20;99.90;;;;;;5124633;27;37558;-65
2021/12/29 06:08:15;;;;;;;37.03;13.25;;;8.30;99.90;;;;;;5122148;27;38218;-65
2021/12/29 06:10:42;;;;;;;26.67;12.02;;;8.30;99.90;;;;;;5123885;27;36544;-65
2021/12/29 06:13:10;;;;;;;24.70;11.98;;;8.30;99.90;;;;;;5124136;27;36911;-65
2021/12/29 06:15:37;;;;;;;26.58;11.93;;;8.30;99.90;;;;;;5122872;27;38192;-65
2021/12/29 06:18:06;;;;;;;28.08;13.23;;;8.30;99.90;;;;;;5124132;27;38216;-65
2021/12/29 06:20:38;;;;;;;33.70;12.77;;;8.30;99.90;;;;;;5122655;27;37736;-65
2021/12/29 06:23:06;;;;;;;22.80;12.90;;;8.30;99.90;;;;;;5123260;27;38525;-65
2021/12/29 06:25:34;;;;;;;29.35;13.85;;;8.30;99.90;;;;;;5123562;27;38312;-65
2021/12/29 06:28:02;;;;;;;26.58;12.07;;;8.20;99.90;;;;;;5122652;27;37612;-65
2021/12/29 06:30:29;;;;;;;23.60;12.10;;;8.30;99.90;;;;;;5124204;27;36361;-65
2021/12/29 06:32:56;;;;;;;25.30;12.50;;;8.30;99.90;;;;;;5123992;27;37320;-65
2021/12/29 06:35:25;;;;;;;26.20;12.75;;;8.30;99.90;;;;;;5124306;27;36497;-65
2021/12/29 06:37:52;;;;;;;35.58;13.13;;;8.30;99.90;;;;;;5123534;27;38078;-65
2021/12/29 06:40:20;;;;;;;26.13;12.20;;;8.30;99.90;;;;;;5124213;27;36540;-65
2021/12/29 06:42:47;;;;;;;25.40;12.10;;;8.30;99.90;;;;;;5123493;27;38068;-62
2021/12/29 06:45:15;;;;;;;31.35;13.02;;;8.30;99.90;;;;;;5123651;27;38074;-62
2021/12/29 06:47:42;;;;;;;26.42;12.88;;;8.30;99.90;;;;;;5122567;27;39910;-62
2021/12/29 06:50:11;;;;;;;22.20;12.20;;;8.30;99.90;;;;;;5123566;27;37138;-62
2021/12/29 06:52:39;;;;;;;29.48;13.07;;;8.30;99.90;;;;;;5122239;27;37583;-62
2021/12/29 06:55:08;;;;;;;24.25;13.13;;;8.30;99.90;;;;;;5123263;27;38604;-62
2021/12/29 06:57:35;;;;;;;25.65;13.82;;;8.30;99.90;;;;;;5122998;27;37561;-62
2021/12/29 07:00:06;;;;;;;29.23;14.48;;;8.30;99.90;;;;;;5122906;27;38550;-62
2021/12/29 07:02:33;;;;;;;41.78;14.60;;;8.30;99.90;;;;;;5123448;27;36228;-62
2021/12/29 07:05:01;;;;;;;26.27;13.18;;;8.30;99.90;;;;;;5123284;27;38950;-65
2021/12/29 07:07:28;;;;;;;39.47;14.07;;;8.40;99.90;;;;;;5121927;27;38258;-65
2021/12/29 07:09:57;;;;;;;39.35;14.75;;;8.40;99.90;;;;;;5123307;27;36827;-65
2021/12/29 07:12:24;;;;;;;39.03;13.20;;;8.40;99.90;;;;;;5123540;27;36231;-65
2021/12/29 07:14:51;;;;;;;26.48;12.65;;;8.40;99.90;;;;;;5122095;27;38709;-65
2021/12/29 07:17:19;;;;;;;32.22;13.60;;;8.40;99.90;;;;;;5123373;27;36142;-62
2021/12/29 07:19:46;;;;;;;37.75;15.40;;;8.40;99.90;;;;;;5122999;27;36385;-62
2021/12/29 07:22:13;;;;;;;29.35;13.65;;;8.40;99.90;;;;;;5122328;27;39891;-62
2021/12/29 07:24:41;;;;;;;48.33;15.18;;;8.40;99.90;;;;;;5122566;27;38144;-62
2021/12/29 07:27:09;;;;;;;38.17;13.43;;;8.40;99.90;;;;;;5122799;27;37361;-62
2021/12/29 07:29:37;;;;;;;38.33;12.80;;;8.40;99.90;;;;;;5123096;27;38155;-62
2021/12/29 07:32:04;;;;;;;37.03;12.75;;;8.40;99.90;;;;;;5121860;27;37740;-62
2021/12/29 07:34:32;;;;;;;39.03;12.43;;;8.40;99.90;;;;;;5121279;27;35947;-62
2021/12/29 07:36:59;;;;;;;30.92;12.95;;;8.40;99.90;;;;;;5119253;27;38150;-62
2021/12/29 07:39:27;;;;;;;24.45;11.88;;;8.40;99.90;;;;;;5121470;27;36934;-62
2021/12/29 07:41:54;;;;;;;24.35;11.73;;;8.40;99.90;;;;;;5120572;27;37765;-62
2021/12/29 07:44:25;;;;;;;28.83;12.10;;;8.40;99.90;;;;;;5120856;27;37380;-62
2021/12/29 07:46:56;;;;;;;41.30;12.73;;;8.40;99.90;;;;;;5121044;27;38015;-62
2021/12/29 07:49:24;;;;;;;35.03;12.80;;;8.40;99.90;;;;;;5121422;27;36984;-62
2021/12/29 07:51:52;;;;;;;31.10;11.52;;;8.40;99.90;;;;;;5121853;27;38145;-65
2021/12/29 07:54:19;;;;;;;27.38;10.77;;;8.40;99.90;;;;;;5121711;27;36329;-65
2021/12/29 07:56:47;;;;;;;32.97;11.38;;;8.40;99.90;;;;;;5121948;27;37503;-65
2021/12/29 07:59:15;;;;;;;32.35;11.82;;;8.40;99.90;;;;;;5121733;27;36833;-65
2021/12/29 08:01:45;;;;;;;15.90;9.45;;;8.40;99.90;;;;;;5122445;27;36151;-65
2021/12/29 08:04:14;;;;;;;21.85;10.32;;;8.40;99.90;;;;;;5122326;27;37151;-65
2021/12/29 08:06:42;;;;;;;20.17;10.35;;;8.40;99.90;;;;;;5122196;27;36225;-64
2021/12/29 08:09:10;;;;;;;29.25;9.63;;;8.40;99.90;;;;;;5122283;27;36848;-65
2021/12/29 08:11:38;;;;;;;18.63;9.50;;;8.40;99.90;;;;;;5122756;27;38109;-65
2021/12/29 08:14:06;;;;;;;23.92;10.60;;;8.40;99.90;;;;;;5121743;27;37700;-65
2021/12/29 08:16:33;;;;;;;18.33;9.48;;;8.40;99.90;;;;;;5122951;27;36102;-64
2021/12/29 08:19:02;;;;;;;22.15;10.32;;;8.50;99.90;;;;;;5122187;27;37201;-65
2021/12/29 08:21:29;;;;;;;21.15;10.82;;;8.50;99.90;;;;;;5121269;27;37376;-65
2021/12/29 08:23:56;;;;;;;27.48;10.95;;;8.50;99.90;;;;;;5121627;27;38433;-65
2021/12/29 08:26:24;;;;;;;25.88;12.13;;;8.50;99.90;;;;;;5122367;27;37300;-64
2021/12/29 08:28:51;;;;;;;36.28;12.07;;;8.50;99.90;;;;;;5120798;27;36168;-65
2021/12/29 08:31:19;;;;;;;32.03;11.90;;;8.50;99.90;;;;;;5120955;27;38909;-65
2021/12/29 08:33:46;;;;;;;25.50;11.82;;;8.50;99.90;;;;;;5121068;27;36698;-64
2021/12/29 08:36:15;;;;;;;28.48;12.88;;;8.50;99.90;;;;;;5121624;27;38051;-64
2021/12/29 08:38:45;;;;;;;31.15;11.90;;;8.50;99.90;;;;;;5120548;27;37743;-65
2021/12/29 08:41:12;;;;;;;29.58;11.85;;;8.50;99.90;;;;;;5121122;27;37445;-64
2021/12/29 08:43:40;;;;;;;34.97;13.35;;;8.50;99.90;;;;;;5120650;27;39207;-64
2021/12/29 08:46:08;;;;;;;40.55;12.27;;;8.50;99.90;;;;;;5122937;27;37548;-65
2021/12/29 08:48:37;;;;;;;39.50;12.35;;;8.50;99.90;;;;;;5123154;27;37455;-64
2021/12/29 08:51:04;;;;;;;38.28;12.13;;;8.50;99.90;;;;;;5124002;27;37521;-64
2021/12/29 08:53:33;;;;;;;41.85;12.35;;;8.50;99.90;;;;;;5123669;27;37828;-64
2021/12/29 08:56:00;;;;;;;24.98;10.63;;;8.50;99.90;;;;;;5123246;27;37745;-62
2021/12/29 08:58:28;;;;;;;24.58;10.27;;;8.50;99.90;;;;;;5123136;27;35499;-62
2021/12/29 09:00:58;;;;;;;27.40;10.65;;;8.50;99.90;;;;;;5122787;27;37015;-62
2021/12/29 09:03:25;;;;;;;35.15;10.52;;;8.60;99.90;;;;;;5122171;27;37392;-62
2021/12/29 09:05:53;;;;;;;32.25;9.68;;;8.60;99.90;;;;;;5122560;27;39773;-62
2021/12/29 09:08:20;;;;;;;33.65;10.35;;;8.60;99.90;;;;;;5122763;27;36516;-62
2021/12/29 09:10:49;;;;;;;21.27;9.20;;;8.60;99.90;;;;;;5123814;27;37709;-64
2021/12/29 09:13:17;;;;;;;17.63;8.90;;;8.60;99.90;;;;;;5123436;27;37783;-64
2021/12/29 09:15:44;;;;;;;29.67;10.05;;;8.60;99.90;;;;;;5126371;27;36106;-64
2021/12/29 09:18:12;;;;;;;21.27;9.07;;;8.60;99.90;;;;;;5127369;27;35982;-64
2021/12/29 09:20:45;;;;;;;20.75;8.88;;;8.60;99.90;;;;;;5126849;27;37395;-64
2021/12/29 09:23:14;;;;;;;21.08;8.38;;;8.70;99.90;;;;;;5127490;27;37456;-64
2021/12/29 09:25:43;;;;;;;27.02;8.80;;;8.70;99.90;;;;;;5126951;27;36230;-64
2021/12/29 09:28:13;;;;;;;36.25;8.75;;;8.70;99.90;;;;;;5125974;27;37295;-62
2021/12/29 09:30:44;;;;;;;34.45;8.45;;;8.70;99.90;;;;;;5127229;27;38604;-62
2021/12/29 09:33:12;;;;;;;20.20;8.25;;;8.70;99.90;;;;;;5126633;27;37954;-62
2021/12/29 09:35:40;;;;;;;25.05;8.15;;;8.80;99.90;;;;;;5126864;27;39224;-62
2021/12/29 09:38:09;;;;;;;27.75;9.15;;;8.80;99.90;;;;;;5127108;27;35108;-62
2021/12/29 09:40:38;;;;;;;24.23;8.25;;;8.80;99.90;;;;;;5127028;27;37679;-62
2021/12/29 09:43:07;;;;;;;23.95;8.95;;;8.80;99.90;;;;;;5126178;27;37815;-62
2021/12/29 09:45:36;;;;;;;37.95;10.30;;;8.80;99.90;;;;;;5126826;27;38823;-62
2021/12/29 09:48:04;;;;;;;37.53;9.27;;;8.90;99.90;;;;;;5126196;27;37976;-62
2021/12/29 09:50:33;;;;;;;15.30;7.85;;;8.90;99.90;;;;;;5126380;27;37126;-63
2021/12/29 09:53:01;;;;;;;17.30;8.52;;;9.00;99.90;;;;;;5126948;27;36334;-62
2021/12/29 09:55:29;;;;;;;20.85;8.50;;;9.00;99.90;;;;;;5125721;27;40639;-62
2021/12/29 09:57:58;;;;;;;15.60;7.78;;;9.10;99.90;;;;;;5126782;27;36583;-62
2021/12/29 10:00:28;;;;;;;18.95;9.23;;;9.10;99.90;;;;;;5126754;27;38398;-62
2021/12/29 10:02:59;;;;;;;16.25;8.68;;;9.10;99.90;;;;;;5124448;27;37354;-62
2021/12/29 10:05:28;;;;;;;19.70;8.90;;;9.10;99.90;;;;;;5126085;27;38131;-62
2021/12/29 10:08:00;;;;;;;20.42;8.27;;;9.10;99.90;;;;;;5126394;27;35268;-64
2021/12/29 10:10:28;;;;;;;18.23;8.95;;;9.10;99.90;;;;;;5126757;27;38121;-64
2021/12/29 10:12:57;;;;;;;17.08;8.45;;;9.10;99.90;;;;;;5126692;27;37868;-64
2021/12/29 10:15:29;;;;;;;16.52;7.68;;;9.10;99.90;;;;;;5126241;27;37495;-64
2021/12/29 10:18:06;;;;;;;19.95;8.23;;;9.10;99.90;;;;;;5126404;27;36430;-62
2021/12/29 10:20:35;;;;;;;20.50;8.82;;;9.10;99.90;;;;;;5126254;27;37580;-62
2021/12/29 10:23:02;;;;;;;19.50;8.23;;;9.10;99.90;;;;;;5126957;27;37491;-62
2021/12/29 10:25:33;;;;;;;20.08;8.90;;;9.10;99.90;;;;;;5125380;27;37270;-62
2021/12/29 10:28:02;;;;;;;14.55;7.70;;;9.20;99.90;;;;;;5125893;27;36164;-62
2021/12/29 10:30:31;;;;;;;18.08;8.85;;;9.20;99.90;;;;;;5126143;27;37248;-62
2021/12/29 10:33:13;;;;;;;17.63;8.43;;;9.20;99.90;;;;;;5126119;27;37835;-62
2021/12/29 10:35:40;;;;;;;17.48;7.05;;;9.20;99.90;;;;;;5125687;27;37467;-62
2021/12/29 10:38:13;;;;;;;23.83;9.32;;;9.20;99.90;;;;;;5125192;27;35335;-62
2021/12/29 10:40:40;;;;;;;18.75;7.80;;;9.20;99.90;;;;;;5125887;27;38521;-63
2021/12/29 10:43:08;;;;;;;14.23;7.75;;;9.20;99.90;;;;;;5124882;27;38305;-63
2021/12/29 10:45:38;;;;;;;16.20;7.68;;;9.20;99.90;;;;;;5124518;27;36131;-63
2021/12/29 10:48:21;;;;;;;19.27;8.32;;;9.30;99.90;;;;;;5123410;27;37232;-63
2021/12/29 10:51:00;;;;;;;17.88;7.43;;;9.30;99.90;;;;;;5121635;27;38733;-63
2021/12/29 10:53:28;;;;;;;16.98;7.50;;;9.30;99.90;;;;;;5124978;27;37243;-64
2021/12/29 10:55:56;;;;;;;19.23;6.95;;;9.30;99.90;;;;;;5124914;27;39252;-65
2021/12/29 10:58:25;;;;;;;16.77;7.47;;;9.30;99.90;;;;;;5124937;27;36488;-64
2021/12/29 11:00:59;;;;;;;16.60;6.80;;;9.30;99.90;;;;;;5124895;27;39009;-65
2021/12/29 11:03:30;;;;;;;18.77;6.82;;;9.30;99.90;;;;;;5124636;27;38998;-64
2021/12/29 11:06:00;;;;;;;21.15;8.07;;;9.20;99.90;;;;;;5122671;27;37610;-63
2021/12/29 11:08:29;;;;;;;18.08;6.50;;;9.20;99.90;;;;;;5123984;27;36368;-63
2021/12/29 11:11:03;;;;;;;28.27;7.75;;;9.20;99.90;;;;;;5126159;27;38588;-63
2021/12/29 11:13:32;;;;;;;13.57;5.75;;;9.20;99.90;;;;;;5124851;27;38749;-63
2021/12/29 11:16:01;;;;;;;18.63;6.18;;;9.20;99.90;;;;;;5124763;27;37594;-63
2021/12/29 11:18:42;;;;;;;18.70;6.72;;;9.20;99.90;;;;;;5123751;27;35138;-63
2021/12/29 11:21:10;;;;;;;18.83;6.28;;;9.10;99.90;;;;;;5128050;27;36245;-63
2021/12/29 11:23:41;;;;;;;20.92;6.30;;;9.10;99.90;;;;;;5126755;27;39092;-63
2021/12/29 11:26:11;;;;;;;13.70;5.97;;;9.10;99.90;;;;;;5128546;27;35760;-63
2021/12/29 11:28:39;;;;;;;13.30;5.72;;;9.10;99.90;;;;;;5128004;27;36681;-62
2021/12/29 11:31:09;;;;;;;12.18;5.82;;;9.10;99.90;;;;;;5128272;27;35558;-62
2021/12/29 11:33:38;;;;;;;17.55;5.47;;;9.00;99.90;;;;;;5128774;27;38824;-62
2021/12/29 11:36:06;;;;;;;15.20;6.43;;;9.00;99.90;;;;;;5128805;27;37197;-62
2021/12/29 11:38:35;;;;;;;16.58;5.90;;;9.00;99.90;;;;;;5128371;27;36515;-62
2021/12/29 11:41:05;;;;;;;17.75;6.90;;;9.00;99.90;;;;;;5127624;27;38865;-62
2021/12/29 11:43:32;;;;;;;25.92;7.05;;;9.00;99.90;;;;;;5128359;27;39475;-62
2021/12/29 11:46:00;;;;;;;20.80;6.50;;;9.00;99.90;;;;;;5129441;27;36128;-62
2021/12/29 11:48:28;;;;;;;19.33;5.55;;;9.00;99.90;;;;;;5128646;27;36700;-62
2021/12/29 11:50:59;;;;;;;21.55;6.10;;;9.00;99.90;;;;;;5128153;27;38743;-62
2021/12/29 11:53:38;;;;;;;17.58;6.82;;;9.00;99.90;;;;;;5128188;27;37864;-63
2021/12/29 11:56:08;;;;;;;17.75;6.32;;;9.00;99.90;;;;;;5126805;27;38584;-62
2021/12/29 11:58:41;;;;;;;24.17;7.32;;;9.00;99.90;;;;;;5126340;27;37921;-63
2021/12/29 12:01:10;;;;;;;21.10;6.53;;;9.10;99.90;;;;;;5126283;27;37497;-62
2021/12/29 12:03:50;;;;;;;22.52;6.25;;;9.10;99.90;;;;;;5124899;27;36287;-63
2021/12/29 12:06:27;;;;;;;20.50;6.80;;;9.10;99.90;;;;;;5125795;27;36927;-65
2021/12/29 12:09:10;;;;;;;21.63;6.07;;;9.20;99.90;;;;;;5128027;27;37429;-64
2021/12/29 12:11:39;;;;;;;23.98;6.38;;;9.20;99.90;;;;;;5127903;27;38211;-64
2021/12/29 12:14:19;;;;;;;22.38;6.63;;;9.10;99.90;;;;;;5127370;27;39039;-65
2021/12/29 12:16:51;;;;;;;24.08;7.35;;;9.10;99.90;;;;;;5126454;27;37591;-63
2021/12/29 12:19:20;;;;;;;20.92;6.53;;;9.10;99.90;;;;;;5125448;27;36570;-64
2021/12/29 12:21:49;;;;;;;21.67;5.45;;;9.10;99.90;;;;;;5125497;27;40915;-64
2021/12/29 12:24:20;;;;;;;21.33;6.20;;;9.10;99.90;;;;;;5126747;27;36400;-64
2021/12/29 12:26:52;;;;;;;23.20;5.80;;;9.10;99.90;;;;;;5127023;27;38628;-64
2021/12/29 12:29:21;;;;;;;18.95;5.63;;;9.10;99.90;;;;;;5126664;27;35177;-64
2021/12/29 12:32:00;;;;;;;18.25;6.05;;;9.10;99.90;;;;;;5127748;27;39139;-64
2021/12/29 12:34:28;;;;;;;18.92;6.07;;;9.10;99.90;;;;;;5127288;27;38226;-64
2021/12/29 12:36:57;;;;;;;15.52;4.90;;;9.10;99.90;;;;;;5127774;27;38212;-64
2021/12/29 12:39:24;;;;;;;17.95;5.10;;;9.10;99.90;;;;;;5127614;27;36302;-64
2021/12/29 12:41:56;;;;;;;22.20;4.20;;;9.00;99.90;;;;;;5127865;27;37579;-64
2021/12/29 12:44:34;;;;;;;18.90;5.18;;;9.00;99.90;;;;;;5126489;27;37780;-64
2021/12/29 12:47:11;;;;;;;18.48;5.05;;;9.00;99.90;;;;;;5127517;27;38516;-64
2021/12/29 12:49:45;;;;;;;23.63;5.75;;;9.00;99.90;;;;;;5128135;27;38333;-64
2021/12/29 12:52:15;;;;;;;18.23;5.38;;;9.00;99.90;;;;;;5131967;27;36190;-64